sensor_id;sensor_type;location;lat;lon;timestamp;temperature;humidity
69436;SHT31;56625;54.322;18.582;2023-06-24T00:00:56;17.33;70.38
69436;SHT31;56625;54.322;18.582;2023-06-24T00:03:35;17.30;70.69
69436;SHT31;56625;54.322;18.582;2023-06-24T00:06:03;17.27;70.80
69436;SHT31;56625;54.322;18.582;2023-06-24T00:08:30;17.24;71.01
69436;SHT31;56625;54.322;18.582;2023-06-24T00:11:03;17.22;71.23
69436;SHT31;56625;54.322;18.582;2023-06-24T00:13:30;17.19;71.36
69436;SHT31;56625;54.322;18.582;2023-06-24T00:15:56;17.16;71.71
69436;SHT31;56625;54.322;18.582;2023-06-24T00:18:23;17.13;71.88
69436;SHT31;56625;54.322;18.582;2023-06-24T00:20:50;17.12;72.09
69436;SHT31;56625;54.322;18.582;2023-06-24T00:23:18;17.11;72.11
69436;SHT31;56625;54.322;18.582;2023-06-24T00:25:52;17.11;72.25
69436;SHT31;56625;54.322;18.582;2023-06-24T00:28:21;17.12;72.27
69436;SHT31;56625;54.322;18.582;2023-06-24T00:30:49;17.11;72.55
69436;SHT31;56625;54.322;18.582;2023-06-24T00:33:16;17.10;72.61
69436;SHT31;56625;54.322;18.582;2023-06-24T00:35:45;17.09;72.77
69436;SHT31;56625;54.322;18.582;2023-06-24T00:38:12;17.07;72.96
69436;SHT31;56625;54.322;18.582;2023-06-24T00:40:39;17.06;72.96
69436;SHT31;56625;54.322;18.582;2023-06-24T00:43:06;17.06;72.95
69436;SHT31;56625;54.322;18.582;2023-06-24T00:45:34;17.05;73.11
69436;SHT31;56625;54.322;18.582;2023-06-24T00:48:01;17.07;73.10
69436;SHT31;56625;54.322;18.582;2023-06-24T00:50:29;17.08;73.03
69436;SHT31;56625;54.322;18.582;2023-06-24T00:52:56;17.10;73.28
69436;SHT31;56625;54.322;18.582;2023-06-24T00:55:22;17.11;73.38
69436;SHT31;56625;54.322;18.582;2023-06-24T00:57:50;17.11;73.30
69436;SHT31;56625;54.322;18.582;2023-06-24T01:00:20;17.13;73.34
69436;SHT31;56625;54.322;18.582;2023-06-24T01:02:49;17.13;73.61
69436;SHT31;56625;54.322;18.582;2023-06-24T01:05:17;17.13;73.53
69436;SHT31;56625;54.322;18.582;2023-06-24T01:07:43;17.13;73.72
69436;SHT31;56625;54.322;18.582;2023-06-24T01:10:16;17.12;73.73
69436;SHT31;56625;54.322;18.582;2023-06-24T01:12:42;17.14;73.71
69436;SHT31;56625;54.322;18.582;2023-06-24T01:15:10;17.14;73.46
69436;SHT31;56625;54.322;18.582;2023-06-24T01:35:00;17.24;73.61
69436;SHT31;56625;54.322;18.582;2023-06-24T01:37:45;17.23;73.62
69436;SHT31;56625;54.322;18.582;2023-06-24T01:42:55;17.23;73.56
69436;SHT31;56625;54.322;18.582;2023-06-24T01:45:32;17.22;73.68
69436;SHT31;56625;54.322;18.582;2023-06-24T01:48:25;17.23;73.48
69436;SHT31;56625;54.322;18.582;2023-06-24T01:51:03;17.26;73.32
69436;SHT31;56625;54.322;18.582;2023-06-24T01:53:37;17.29;73.21
69436;SHT31;56625;54.322;18.582;2023-06-24T01:56:11;17.32;73.16
69436;SHT31;56625;54.322;18.582;2023-06-24T01:58:42;17.32;73.15
69436;SHT31;56625;54.322;18.582;2023-06-24T02:01:12;17.33;73.10
69436;SHT31;56625;54.322;18.582;2023-06-24T02:03:41;17.35;73.17
69436;SHT31;56625;54.322;18.582;2023-06-24T02:06:09;17.35;73.25
69436;SHT31;56625;54.322;18.582;2023-06-24T02:08:39;17.33;73.39
69436;SHT31;56625;54.322;18.582;2023-06-24T02:11:09;17.29;73.66
69436;SHT31;56625;54.322;18.582;2023-06-24T02:13:38;17.26;73.76
69436;SHT31;56625;54.322;18.582;2023-06-24T02:16:08;17.25;73.70
69436;SHT31;56625;54.322;18.582;2023-06-24T02:18:37;17.23;73.88
69436;SHT31;56625;54.322;18.582;2023-06-24T02:21:09;17.21;73.92
69436;SHT31;56625;54.322;18.582;2023-06-24T02:23:38;17.20;74.07
69436;SHT31;56625;54.322;18.582;2023-06-24T02:26:06;17.20;74.10
69436;SHT31;56625;54.322;18.582;2023-06-24T02:28:33;17.19;74.19
69436;SHT31;56625;54.322;18.582;2023-06-24T02:31:01;17.19;74.19
69436;SHT31;56625;54.322;18.582;2023-06-24T02:33:29;17.19;74.14
69436;SHT31;56625;54.322;18.582;2023-06-24T02:35:56;17.18;74.09
69436;SHT31;56625;54.322;18.582;2023-06-24T02:38:22;17.20;74.09
69436;SHT31;56625;54.322;18.582;2023-06-24T02:40:49;17.17;74.18
69436;SHT31;56625;54.322;18.582;2023-06-24T02:43:16;17.16;74.37
69436;SHT31;56625;54.322;18.582;2023-06-24T02:45:44;17.14;74.62
69436;SHT31;56625;54.322;18.582;2023-06-24T02:48:13;17.11;74.60
69436;SHT31;56625;54.322;18.582;2023-06-24T02:50:41;17.09;74.72
69436;SHT31;56625;54.322;18.582;2023-06-24T02:53:10;17.08;74.72
69436;SHT31;56625;54.322;18.582;2023-06-24T02:55:38;17.09;74.69
69436;SHT31;56625;54.322;18.582;2023-06-24T02:58:08;17.09;74.77
69436;SHT31;56625;54.322;18.582;2023-06-24T03:00:35;17.09;74.61
69436;SHT31;56625;54.322;18.582;2023-06-24T03:03:04;17.10;74.72
69436;SHT31;56625;54.322;18.582;2023-06-24T03:05:33;17.08;74.74
69436;SHT31;56625;54.322;18.582;2023-06-24T03:08:02;17.04;75.06
69436;SHT31;56625;54.322;18.582;2023-06-24T03:10:30;16.99;75.19
69436;SHT31;56625;54.322;18.582;2023-06-24T03:12:56;16.95;75.19
69436;SHT31;56625;54.322;18.582;2023-06-24T03:15:23;16.94;75.18
69436;SHT31;56625;54.322;18.582;2023-06-24T03:17:53;16.92;75.26
69436;SHT31;56625;54.322;18.582;2023-06-24T03:20:21;16.88;75.79
69436;SHT31;56625;54.322;18.582;2023-06-24T03:22:47;16.83;75.56
69436;SHT31;56625;54.322;18.582;2023-06-24T03:25:14;16.84;75.40
69436;SHT31;56625;54.322;18.582;2023-06-24T03:27:41;16.83;75.42
69436;SHT31;56625;54.322;18.582;2023-06-24T03:30:07;16.83;75.41
69436;SHT31;56625;54.322;18.582;2023-06-24T03:32:37;16.84;75.47
69436;SHT31;56625;54.322;18.582;2023-06-24T03:35:03;16.83;75.42
69436;SHT31;56625;54.322;18.582;2023-06-24T03:37:31;16.83;75.44
69436;SHT31;56625;54.322;18.582;2023-06-24T03:39:57;16.83;75.56
69436;SHT31;56625;54.322;18.582;2023-06-24T03:42:24;16.82;75.71
69436;SHT31;56625;54.322;18.582;2023-06-24T03:44:51;16.80;75.93
69436;SHT31;56625;54.322;18.582;2023-06-24T03:47:18;16.78;75.92
69436;SHT31;56625;54.322;18.582;2023-06-24T03:49:44;16.77;75.94
69436;SHT31;56625;54.322;18.582;2023-06-24T03:52:11;16.77;75.89
69436;SHT31;56625;54.322;18.582;2023-06-24T03:54:37;16.78;75.85
69436;SHT31;56625;54.322;18.582;2023-06-24T03:57:07;16.80;75.78
69436;SHT31;56625;54.322;18.582;2023-06-24T03:59:34;16.81;75.77
69436;SHT31;56625;54.322;18.582;2023-06-24T04:02:01;16.83;75.66
69436;SHT31;56625;54.322;18.582;2023-06-24T04:04:28;16.88;75.60
69436;SHT31;56625;54.322;18.582;2023-06-24T04:06:54;16.89;75.53
69436;SHT31;56625;54.322;18.582;2023-06-24T04:09:21;16.88;75.55
69436;SHT31;56625;54.322;18.582;2023-06-24T04:11:48;16.88;75.54
69436;SHT31;56625;54.322;18.582;2023-06-24T04:14:15;16.88;75.54
69436;SHT31;56625;54.322;18.582;2023-06-24T04:16:41;16.90;75.52
69436;SHT31;56625;54.322;18.582;2023-06-24T04:19:08;16.92;75.47
69436;SHT31;56625;54.322;18.582;2023-06-24T04:21:35;16.95;75.42
69436;SHT31;56625;54.322;18.582;2023-06-24T04:24:01;17.02;75.26
69436;SHT31;56625;54.322;18.582;2023-06-24T04:26:28;17.11;75.03
69436;SHT31;56625;54.322;18.582;2023-06-24T04:28:54;17.18;74.76
69436;SHT31;56625;54.322;18.582;2023-06-24T04:31:21;17.24;74.53
69436;SHT31;56625;54.322;18.582;2023-06-24T04:33:47;17.30;74.33
69436;SHT31;56625;54.322;18.582;2023-06-24T04:36:14;17.37;74.19
69436;SHT31;56625;54.322;18.582;2023-06-24T04:38:41;17.45;73.98
69436;SHT31;56625;54.322;18.582;2023-06-24T04:41:07;17.61;73.65
69436;SHT31;56625;54.322;18.582;2023-06-24T04:43:34;17.75;73.11
69436;SHT31;56625;54.322;18.582;2023-06-24T04:46:01;17.81;72.98
69436;SHT31;56625;54.322;18.582;2023-06-24T04:48:28;17.87;72.78
69436;SHT31;56625;54.322;18.582;2023-06-24T04:50:55;17.89;72.61
69436;SHT31;56625;54.322;18.582;2023-06-24T04:53:24;17.89;72.63
69436;SHT31;56625;54.322;18.582;2023-06-24T04:55:50;17.88;72.61
69436;SHT31;56625;54.322;18.582;2023-06-24T04:58:17;17.85;72.78
69436;SHT31;56625;54.322;18.582;2023-06-24T05:00:43;17.88;72.82
69436;SHT31;56625;54.322;18.582;2023-06-24T05:03:10;17.91;72.70
69436;SHT31;56625;54.322;18.582;2023-06-24T05:05:36;17.88;72.72
69436;SHT31;56625;54.322;18.582;2023-06-24T05:08:04;17.84;72.87
69436;SHT31;56625;54.322;18.582;2023-06-24T05:10:31;17.83;72.94
69436;SHT31;56625;54.322;18.582;2023-06-24T05:12:57;17.81;73.08
69436;SHT31;56625;54.322;18.582;2023-06-24T05:15:24;17.80;73.17
69436;SHT31;56625;54.322;18.582;2023-06-24T05:17:50;17.82;73.23
69436;SHT31;56625;54.322;18.582;2023-06-24T05:20:19;17.86;73.26
69436;SHT31;56625;54.322;18.582;2023-06-24T05:22:46;17.88;73.19
69436;SHT31;56625;54.322;18.582;2023-06-24T05:25:12;17.90;73.17
69436;SHT31;56625;54.322;18.582;2023-06-24T05:27:39;17.94;73.18
69436;SHT31;56625;54.322;18.582;2023-06-24T05:30:06;18.02;73.16
69436;SHT31;56625;54.322;18.582;2023-06-24T05:32:33;18.10;73.00
69436;SHT31;56625;54.322;18.582;2023-06-24T05:34:59;18.17;72.66
69436;SHT31;56625;54.322;18.582;2023-06-24T05:37:26;18.23;72.69
69436;SHT31;56625;54.322;18.582;2023-06-24T05:39:52;18.32;72.48
69436;SHT31;56625;54.322;18.582;2023-06-24T05:42:20;18.41;72.25
69436;SHT31;56625;54.322;18.582;2023-06-24T05:44:46;18.47;71.98
69436;SHT31;56625;54.322;18.582;2023-06-24T05:47:13;18.49;71.86
69436;SHT31;56625;54.322;18.582;2023-06-24T05:49:40;18.64;71.62
69436;SHT31;56625;54.322;18.582;2023-06-24T05:52:07;18.94;70.98
69436;SHT31;56625;54.322;18.582;2023-06-24T05:54:33;19.10;70.13
69436;SHT31;56625;54.322;18.582;2023-06-24T05:57:00;19.14;69.86
69436;SHT31;56625;54.322;18.582;2023-06-24T05:59:27;19.16;69.73
69436;SHT31;56625;54.322;18.582;2023-06-24T06:01:53;19.19;69.65
69436;SHT31;56625;54.322;18.582;2023-06-24T06:04:20;19.27;69.57
69436;SHT31;56625;54.322;18.582;2023-06-24T06:06:46;19.39;69.11
69436;SHT31;56625;54.322;18.582;2023-06-24T06:09:13;19.51;68.85
69436;SHT31;56625;54.322;18.582;2023-06-24T06:11:40;19.65;68.42
69436;SHT31;56625;54.322;18.582;2023-06-24T06:14:06;19.97;67.97
69436;SHT31;56625;54.322;18.582;2023-06-24T06:16:33;20.35;66.70
69436;SHT31;56625;54.322;18.582;2023-06-24T06:19:00;20.56;65.71
69436;SHT31;56625;54.322;18.582;2023-06-24T06:21:26;20.72;65.10
69436;SHT31;56625;54.322;18.582;2023-06-24T06:23:53;20.82;64.77
69436;SHT31;56625;54.322;18.582;2023-06-24T06:26:21;20.89;64.19
69436;SHT31;56625;54.322;18.582;2023-06-24T06:28:47;20.90;64.12
69436;SHT31;56625;54.322;18.582;2023-06-24T06:31:15;20.78;64.43
69436;SHT31;56625;54.322;18.582;2023-06-24T06:33:43;20.74;64.73
69436;SHT31;56625;54.322;18.582;2023-06-24T06:36:09;20.75;64.23
69436;SHT31;56625;54.322;18.582;2023-06-24T06:38:40;20.71;64.11
69436;SHT31;56625;54.322;18.582;2023-06-24T06:41:07;20.69;64.26
69436;SHT31;56625;54.322;18.582;2023-06-24T06:43:33;20.67;64.17
69436;SHT31;56625;54.322;18.582;2023-06-24T06:46:02;20.68;64.01
69436;SHT31;56625;54.322;18.582;2023-06-24T06:48:29;20.74;63.83
69436;SHT31;56625;54.322;18.582;2023-06-24T06:50:56;20.81;64.02
69436;SHT31;56625;54.322;18.582;2023-06-24T06:53:22;21.01;64.33
69436;SHT31;56625;54.322;18.582;2023-06-24T06:55:49;21.22;63.27
69436;SHT31;56625;54.322;18.582;2023-06-24T06:58:15;21.31;62.79
69436;SHT31;56625;54.322;18.582;2023-06-24T07:00:42;21.41;62.64
69436;SHT31;56625;54.322;18.582;2023-06-24T07:03:08;21.53;62.43
69436;SHT31;56625;54.322;18.582;2023-06-24T07:05:35;21.68;62.25
69436;SHT31;56625;54.322;18.582;2023-06-24T07:08:06;21.92;62.26
69436;SHT31;56625;54.322;18.582;2023-06-24T07:10:33;22.20;61.93
69436;SHT31;56625;54.322;18.582;2023-06-24T07:13:00;22.38;60.19
69436;SHT31;56625;54.322;18.582;2023-06-24T07:15:28;22.33;60.35
69436;SHT31;56625;54.322;18.582;2023-06-24T07:17:54;22.48;60.76
69436;SHT31;56625;54.322;18.582;2023-06-24T07:20:21;22.70;60.25
69436;SHT31;56625;54.322;18.582;2023-06-24T07:22:48;22.88;59.70
69436;SHT31;56625;54.322;18.582;2023-06-24T07:25:15;23.06;58.78
69436;SHT31;56625;54.322;18.582;2023-06-24T07:27:42;23.19;58.03
69436;SHT31;56625;54.322;18.582;2023-06-24T07:30:09;23.13;57.43
69436;SHT31;56625;54.322;18.582;2023-06-24T07:32:36;23.06;57.72
69436;SHT31;56625;54.322;18.582;2023-06-24T07:35:03;23.03;57.71
69436;SHT31;56625;54.322;18.582;2023-06-24T07:37:31;23.07;57.82
69436;SHT31;56625;54.322;18.582;2023-06-24T07:39:58;23.15;57.61
69436;SHT31;56625;54.322;18.582;2023-06-24T07:42:26;23.21;57.12
69436;SHT31;56625;54.322;18.582;2023-06-24T07:44:55;23.24;56.78
69436;SHT31;56625;54.322;18.582;2023-06-24T07:47:22;23.33;56.42
69436;SHT31;56625;54.322;18.582;2023-06-24T07:49:49;23.42;56.04
69436;SHT31;56625;54.322;18.582;2023-06-24T07:52:16;23.44;56.22
69436;SHT31;56625;54.322;18.582;2023-06-24T07:54:43;23.61;56.00
69436;SHT31;56625;54.322;18.582;2023-06-24T07:57:10;23.73;55.26
69436;SHT31;56625;54.322;18.582;2023-06-24T07:59:36;23.82;54.74
69436;SHT31;56625;54.322;18.582;2023-06-24T08:02:03;23.93;54.81
69436;SHT31;56625;54.322;18.582;2023-06-24T08:04:29;24.16;54.93
69436;SHT31;56625;54.322;18.582;2023-06-24T08:06:56;24.44;53.51
69436;SHT31;56625;54.322;18.582;2023-06-24T08:09:23;24.73;52.60
69436;SHT31;56625;54.322;18.582;2023-06-24T08:11:49;24.90;49.64
69436;SHT31;56625;54.322;18.582;2023-06-24T08:14:16;24.91;46.22
69436;SHT31;56625;54.322;18.582;2023-06-24T08:16:43;24.92;45.55
69436;SHT31;56625;54.322;18.582;2023-06-24T08:19:09;25.07;45.06
69436;SHT31;56625;54.322;18.582;2023-06-24T08:21:36;25.27;43.15
69436;SHT31;56625;54.322;18.582;2023-06-24T08:24:04;25.37;42.85
69436;SHT31;56625;54.322;18.582;2023-06-24T08:26:31;25.46;44.66
69436;SHT31;56625;54.322;18.582;2023-06-24T08:28:58;25.67;44.18
69436;SHT31;56625;54.322;18.582;2023-06-24T08:31:29;25.76;43.82
69436;SHT31;56625;54.322;18.582;2023-06-24T08:33:58;25.88;44.33
69436;SHT31;56625;54.322;18.582;2023-06-24T08:36:28;26.01;42.17
69436;SHT31;56625;54.322;18.582;2023-06-24T08:38:55;26.04;42.00
69436;SHT31;56625;54.322;18.582;2023-06-24T08:41:22;26.14;42.36
69436;SHT31;56625;54.322;18.582;2023-06-24T08:43:53;26.30;42.74
69436;SHT31;56625;54.322;18.582;2023-06-24T08:46:21;26.44;42.27
69436;SHT31;56625;54.322;18.582;2023-06-24T08:49:00;26.32;42.67
69436;SHT31;56625;54.322;18.582;2023-06-24T08:51:35;26.26;43.11
69436;SHT31;56625;54.322;18.582;2023-06-24T08:54:08;26.24;43.32
69436;SHT31;56625;54.322;18.582;2023-06-24T08:56:37;26.24;44.01
69436;SHT31;56625;54.322;18.582;2023-06-24T08:59:08;26.15;44.40
69436;SHT31;56625;54.322;18.582;2023-06-24T09:01:35;26.01;44.44
69436;SHT31;56625;54.322;18.582;2023-06-24T09:04:02;25.83;44.52
69436;SHT31;56625;54.322;18.582;2023-06-24T09:06:33;25.71;44.90
69436;SHT31;56625;54.322;18.582;2023-06-24T09:08:59;25.72;45.12
69436;SHT31;56625;54.322;18.582;2023-06-24T09:11:27;25.69;45.24
69436;SHT31;56625;54.322;18.582;2023-06-24T09:13:58;25.52;47.16
69436;SHT31;56625;54.322;18.582;2023-06-24T09:16:26;25.37;47.70
69436;SHT31;56625;54.322;18.582;2023-06-24T09:18:55;25.32;47.50
69436;SHT31;56625;54.322;18.582;2023-06-24T09:21:25;25.28;47.44
69436;SHT31;56625;54.322;18.582;2023-06-24T09:23:55;25.33;47.44
69436;SHT31;56625;54.322;18.582;2023-06-24T09:26:24;25.45;46.30
69436;SHT31;56625;54.322;18.582;2023-06-24T09:28:52;25.47;45.60
69436;SHT31;56625;54.322;18.582;2023-06-24T09:31:20;25.39;45.72
69436;SHT31;56625;54.322;18.582;2023-06-24T09:33:49;25.40;46.19
69436;SHT31;56625;54.322;18.582;2023-06-24T09:36:16;25.46;46.18
69436;SHT31;56625;54.322;18.582;2023-06-24T09:38:43;25.40;46.18
69436;SHT31;56625;54.322;18.582;2023-06-24T09:41:14;25.42;46.25
69436;SHT31;56625;54.322;18.582;2023-06-24T09:43:41;25.42;45.94
69436;SHT31;56625;54.322;18.582;2023-06-24T09:46:13;25.35;45.73
69436;SHT31;56625;54.322;18.582;2023-06-24T09:48:42;25.29;45.18
69436;SHT31;56625;54.322;18.582;2023-06-24T09:51:09;25.45;45.16
69436;SHT31;56625;54.322;18.582;2023-06-24T09:53:39;25.60;45.28
69436;SHT31;56625;54.322;18.582;2023-06-24T09:56:09;25.72;45.63
69436;SHT31;56625;54.322;18.582;2023-06-24T09:58:39;25.87;45.71
69436;SHT31;56625;54.322;18.582;2023-06-24T10:01:09;25.95;45.84
69436;SHT31;56625;54.322;18.582;2023-06-24T10:03:36;26.06;46.38
69436;SHT31;56625;54.322;18.582;2023-06-24T10:06:04;26.25;46.07
69436;SHT31;56625;54.322;18.582;2023-06-24T10:08:33;26.31;46.06
69436;SHT31;56625;54.322;18.582;2023-06-24T10:11:00;26.28;46.22
69436;SHT31;56625;54.322;18.582;2023-06-24T10:13:28;26.12;45.94
69436;SHT31;56625;54.322;18.582;2023-06-24T10:15:58;26.00;46.27
69436;SHT31;56625;54.322;18.582;2023-06-24T10:20:58;25.87;46.15
69436;SHT31;56625;54.322;18.582;2023-06-24T10:23:41;26.01;46.19
69436;SHT31;56625;54.322;18.582;2023-06-24T10:26:28;26.05;44.92
69436;SHT31;56625;54.322;18.582;2023-06-24T10:39:37;26.92;42.87
69436;SHT31;56625;54.322;18.582;2023-06-24T10:42:36;27.19;42.32
69436;SHT31;56625;54.322;18.582;2023-06-24T10:47:46;27.35;42.16
69436;SHT31;56625;54.322;18.582;2023-06-24T10:50:19;27.31;41.85
69436;SHT31;56625;54.322;18.582;2023-06-24T10:52:48;27.07;42.32
69436;SHT31;56625;54.322;18.582;2023-06-24T10:55:22;26.81;43.01
69436;SHT31;56625;54.322;18.582;2023-06-24T10:57:52;26.72;43.39
69436;SHT31;56625;54.322;18.582;2023-06-24T11:00:20;26.72;43.82
69436;SHT31;56625;54.322;18.582;2023-06-24T11:02:47;26.75;43.91
69436;SHT31;56625;54.322;18.582;2023-06-24T11:05:14;26.66;43.82
69436;SHT31;56625;54.322;18.582;2023-06-24T11:07:41;26.45;44.34
69436;SHT31;56625;54.322;18.582;2023-06-24T11:10:10;26.45;44.56
69436;SHT31;56625;54.322;18.582;2023-06-24T11:12:40;26.57;44.13
69436;SHT31;56625;54.322;18.582;2023-06-24T11:15:09;26.71;43.27
69436;SHT31;56625;54.322;18.582;2023-06-24T11:17:39;26.87;43.11
69436;SHT31;56625;54.322;18.582;2023-06-24T11:20:13;27.08;43.13
69436;SHT31;56625;54.322;18.582;2023-06-24T11:22:41;27.11;42.96
69436;SHT31;56625;54.322;18.582;2023-06-24T11:25:19;26.92;43.10
69436;SHT31;56625;54.322;18.582;2023-06-24T11:27:50;26.61;43.99
69436;SHT31;56625;54.322;18.582;2023-06-24T11:30:20;26.39;44.29
69436;SHT31;56625;54.322;18.582;2023-06-24T11:32:47;26.27;44.74
69436;SHT31;56625;54.322;18.582;2023-06-24T11:35:16;26.18;45.12
69436;SHT31;56625;54.322;18.582;2023-06-24T11:37:46;26.23;45.19
69436;SHT31;56625;54.322;18.582;2023-06-24T11:40:15;26.27;44.79
69436;SHT31;56625;54.322;18.582;2023-06-24T11:42:45;26.34;44.41
69436;SHT31;56625;54.322;18.582;2023-06-24T11:45:14;26.37;44.33
69436;SHT31;56625;54.322;18.582;2023-06-24T11:47:47;26.63;44.28
69436;SHT31;56625;54.322;18.582;2023-06-24T11:50:14;26.81;43.46
69436;SHT31;56625;54.322;18.582;2023-06-24T11:52:42;26.64;43.19
69436;SHT31;56625;54.322;18.582;2023-06-24T12:00:39;26.89;42.50
69436;SHT31;56625;54.322;18.582;2023-06-24T12:03:11;26.97;42.26
69436;SHT31;56625;54.322;18.582;2023-06-24T12:05:38;26.78;42.56
69436;SHT31;56625;54.322;18.582;2023-06-24T12:08:11;26.63;43.70
69436;SHT31;56625;54.322;18.582;2023-06-24T12:10:40;26.51;44.30
69436;SHT31;56625;54.322;18.582;2023-06-24T12:13:06;26.46;44.56
69436;SHT31;56625;54.322;18.582;2023-06-24T12:15:34;26.35;44.00
69436;SHT31;56625;54.322;18.582;2023-06-24T12:18:02;26.08;43.91
69436;SHT31;56625;54.322;18.582;2023-06-24T12:20:29;25.82;44.46
69436;SHT31;56625;54.322;18.582;2023-06-24T12:23:02;25.69;44.65
69436;SHT31;56625;54.322;18.582;2023-06-24T12:25:29;25.63;45.01
69436;SHT31;56625;54.322;18.582;2023-06-24T12:27:56;25.66;45.28
69436;SHT31;56625;54.322;18.582;2023-06-24T12:30:23;25.70;45.46
69436;SHT31;56625;54.322;18.582;2023-06-24T12:32:49;25.64;45.41
69436;SHT31;56625;54.322;18.582;2023-06-24T12:35:17;25.47;45.87
69436;SHT31;56625;54.322;18.582;2023-06-24T12:37:44;25.31;46.24
69436;SHT31;56625;54.322;18.582;2023-06-24T12:40:11;25.16;46.60
69436;SHT31;56625;54.322;18.582;2023-06-24T12:42:38;25.10;46.53
69436;SHT31;56625;54.322;18.582;2023-06-24T12:45:05;25.02;46.24
69436;SHT31;56625;54.322;18.582;2023-06-24T12:47:32;24.93;46.35
69436;SHT31;56625;54.322;18.582;2023-06-24T12:49:59;24.80;46.26
69436;SHT31;56625;54.322;18.582;2023-06-24T12:52:26;24.68;45.83
69436;SHT31;56625;54.322;18.582;2023-06-24T12:54:52;24.59;46.58
69436;SHT31;56625;54.322;18.582;2023-06-24T12:57:19;24.56;47.47
69436;SHT31;56625;54.322;18.582;2023-06-24T12:59:46;24.62;48.04
69436;SHT31;56625;54.322;18.582;2023-06-24T13:02:12;24.82;48.16
69436;SHT31;56625;54.322;18.582;2023-06-24T13:04:39;24.97;47.91
69436;SHT31;56625;54.322;18.582;2023-06-24T13:07:06;25.01;47.39
69436;SHT31;56625;54.322;18.582;2023-06-24T13:09:33;25.17;47.01
69436;SHT31;56625;54.322;18.582;2023-06-24T13:11:59;25.28;46.29
69436;SHT31;56625;54.322;18.582;2023-06-24T13:14:26;25.47;45.97
69436;SHT31;56625;54.322;18.582;2023-06-24T13:16:54;25.76;44.77
69436;SHT31;56625;54.322;18.582;2023-06-24T13:19:21;25.96;43.95
69436;SHT31;56625;54.322;18.582;2023-06-24T13:21:49;26.17;43.49
69436;SHT31;56625;54.322;18.582;2023-06-24T13:24:15;26.22;43.61
69436;SHT31;56625;54.322;18.582;2023-06-24T13:26:42;26.30;43.66
69436;SHT31;56625;54.322;18.582;2023-06-24T13:29:09;26.35;43.20
69436;SHT31;56625;54.322;18.582;2023-06-24T13:31:36;26.32;43.25
69436;SHT31;56625;54.322;18.582;2023-06-24T13:34:02;26.48;43.47
69436;SHT31;56625;54.322;18.582;2023-06-24T13:36:34;26.66;42.68
69436;SHT31;56625;54.322;18.582;2023-06-24T13:39:03;26.53;42.54
69436;SHT31;56625;54.322;18.582;2023-06-24T13:41:33;26.57;42.52
69436;SHT31;56625;54.322;18.582;2023-06-24T13:44:00;26.60;42.17
69436;SHT31;56625;54.322;18.582;2023-06-24T13:46:28;26.44;41.50
69436;SHT31;56625;54.322;18.582;2023-06-24T13:48:57;26.27;41.62
69436;SHT31;56625;54.322;18.582;2023-06-24T13:51:24;26.20;42.03
69436;SHT31;56625;54.322;18.582;2023-06-24T13:53:52;26.20;42.29
69436;SHT31;56625;54.322;18.582;2023-06-24T13:56:21;26.23;41.57
69436;SHT31;56625;54.322;18.582;2023-06-24T13:58:50;26.23;41.71
69436;SHT31;56625;54.322;18.582;2023-06-24T14:01:17;26.35;41.48
69436;SHT31;56625;54.322;18.582;2023-06-24T14:03:45;26.31;41.19
69436;SHT31;56625;54.322;18.582;2023-06-24T14:06:16;26.36;41.44
69436;SHT31;56625;54.322;18.582;2023-06-24T14:08:45;26.41;40.46
69436;SHT31;56625;54.322;18.582;2023-06-24T14:11:12;26.45;40.40
69436;SHT31;56625;54.322;18.582;2023-06-24T14:13:39;26.53;40.52
69436;SHT31;56625;54.322;18.582;2023-06-24T14:16:07;26.70;40.57
69436;SHT31;56625;54.322;18.582;2023-06-24T14:18:34;26.70;40.51
69436;SHT31;56625;54.322;18.582;2023-06-24T14:21:02;26.57;40.76
69436;SHT31;56625;54.322;18.582;2023-06-24T14:23:32;26.45;41.03
69436;SHT31;56625;54.322;18.582;2023-06-24T14:25:58;26.32;40.59
69436;SHT31;56625;54.322;18.582;2023-06-24T14:28:26;26.21;40.57
69436;SHT31;56625;54.322;18.582;2023-06-24T14:30:53;26.13;40.76
69436;SHT31;56625;54.322;18.582;2023-06-24T14:33:20;26.02;40.54
69436;SHT31;56625;54.322;18.582;2023-06-24T14:35:47;25.99;41.19
69436;SHT31;56625;54.322;18.582;2023-06-24T14:38:13;26.05;41.32
69436;SHT31;56625;54.322;18.582;2023-06-24T14:40:40;26.09;41.41
69436;SHT31;56625;54.322;18.582;2023-06-24T14:43:07;26.09;41.59
69436;SHT31;56625;54.322;18.582;2023-06-24T14:45:33;26.10;41.56
69436;SHT31;56625;54.322;18.582;2023-06-24T14:48:00;26.08;41.42
69436;SHT31;56625;54.322;18.582;2023-06-24T14:50:27;26.07;41.30
69436;SHT31;56625;54.322;18.582;2023-06-24T14:52:53;26.07;40.43
69436;SHT31;56625;54.322;18.582;2023-06-24T14:55:20;25.89;40.33
69436;SHT31;56625;54.322;18.582;2023-06-24T14:57:46;25.79;40.67
69436;SHT31;56625;54.322;18.582;2023-06-24T15:00:17;25.78;39.99
69436;SHT31;56625;54.322;18.582;2023-06-24T15:02:44;25.82;40.08
69436;SHT31;56625;54.322;18.582;2023-06-24T15:05:10;25.89;40.13
69436;SHT31;56625;54.322;18.582;2023-06-24T15:07:37;25.94;39.51
69436;SHT31;56625;54.322;18.582;2023-06-24T15:10:04;25.99;39.01
69436;SHT31;56625;54.322;18.582;2023-06-24T15:12:32;26.05;39.04
69436;SHT31;56625;54.322;18.582;2023-06-24T15:15:00;25.99;39.00
69436;SHT31;56625;54.322;18.582;2023-06-24T15:17:27;25.93;38.77
69436;SHT31;56625;54.322;18.582;2023-06-24T15:19:56;25.92;38.95
69436;SHT31;56625;54.322;18.582;2023-06-24T15:22:23;25.88;39.33
69436;SHT31;56625;54.322;18.582;2023-06-24T15:24:49;25.88;39.63
69436;SHT31;56625;54.322;18.582;2023-06-24T15:27:16;25.96;39.68
69436;SHT31;56625;54.322;18.582;2023-06-24T15:29:43;26.06;39.63
69436;SHT31;56625;54.322;18.582;2023-06-24T15:32:09;26.24;39.47
69436;SHT31;56625;54.322;18.582;2023-06-24T15:34:36;26.36;38.77
69436;SHT31;56625;54.322;18.582;2023-06-24T15:37:03;26.35;38.34
69436;SHT31;56625;54.322;18.582;2023-06-24T15:39:30;26.31;38.23
69436;SHT31;56625;54.322;18.582;2023-06-24T15:41:56;26.25;38.23
69436;SHT31;56625;54.322;18.582;2023-06-24T15:44:23;26.29;38.32
69436;SHT31;56625;54.322;18.582;2023-06-24T15:46:49;26.37;38.15
69436;SHT31;56625;54.322;18.582;2023-06-24T15:49:16;26.40;38.11
69436;SHT31;56625;54.322;18.582;2023-06-24T15:51:43;26.42;38.31
69436;SHT31;56625;54.322;18.582;2023-06-24T15:54:10;26.49;37.96
69436;SHT31;56625;54.322;18.582;2023-06-24T15:56:36;26.46;37.70
69436;SHT31;56625;54.322;18.582;2023-06-24T15:59:03;26.37;37.86
69436;SHT31;56625;54.322;18.582;2023-06-24T16:01:30;26.29;37.77